Time;durP1;ratioP1;P1;durP2;ratioP2;P2;SDS_P1;SDS_P2;PMS_P1;PMS_P2;Temp;Humidity;BMP_temperature;BMP_pressure;BME280_temperature;BME280_humidity;BME280_pressure;Samples;Min_cycle;Max_cycle;Signal;HPM_P1;HPM_P2
2023/06/15 00:02:16;;;;;;;7.15;6.50;;;;;;;-144.30;85.60;84825.94;5110984;28;20221;-56
2023/06/15 00:04:43;;;;;;;7.18;6.68;;;;;;;-144.30;85.33;84829.91;5110309;28;20637;-56
2023/06/15 00:07:10;;;;;;;6.22;5.82;;;;;;;-144.30;85.73;84847.81;5110741;28;20198;-61
2023/06/15 00:09:38;;;;;;;7.65;7.05;;;;;;;-144.30;86.08;84857.75;5110457;28;20223;-61
2023/06/15 00:12:09;;;;;;;7.50;7.10;;;;;;;-144.30;86.09;84899.47;5110706;28;20201;-61
2023/06/15 00:14:36;;;;;;;10.88;6.85;;;;;;;-144.30;86.39;84871.66;5110678;28;20904;-60
2023/06/15 00:17:03;;;;;;;7.18;6.63;;;;;;;-144.30;86.19;84885.56;5110733;28;20197;-55
2023/06/15 00:19:30;;;;;;;7.05;6.35;;;;;;;-144.30;86.58;84855.75;5110353;27;20375;-57
2023/06/15 00:21:56;;;;;;;8.15;6.50;;;;;;;-144.30;86.67;84875.63;5110411;28;20895;-56
2023/06/15 00:24:23;;;;;;;7.03;6.47;;;;;;;-144.30;86.48;84847.81;5110242;28;20191;-56
2023/06/15 00:26:52;;;;;;;8.35;6.65;;;;;;;-144.30;86.31;84855.75;5110285;28;20293;-56
2023/06/15 00:29:19;;;;;;;7.15;6.50;;;;;;;-144.30;86.38;84859.72;5110290;28;20214;-57
2023/06/15 00:31:45;;;;;;;7.15;6.10;;;;;;;-144.30;86.54;84899.47;5110542;28;20634;-56
2023/06/15 00:34:12;;;;;;;7.78;6.85;;;;;;;-144.30;86.59;84901.47;5110148;28;20655;-57
2023/06/15 00:36:39;;;;;;;7.65;7.07;;;;;;;-144.30;86.97;84911.41;5110166;28;20581;-56
2023/06/15 00:39:07;;;;;;;6.70;6.20;;;;;;;-144.30;87.48;84907.44;5110256;28;20285;-56
2023/06/15 00:41:41;;;;;;;7.65;6.88;;;;;;;-144.30;87.52;84945.19;5109797;28;20196;-55
2023/06/15 00:44:10;;;;;;;7.38;6.88;;;;;;;-144.30;87.59;84816.00;5110100;28;20697;-57
2023/06/15 00:46:37;;;;;;;7.28;6.78;;;;;;;-144.30;87.59;84887.56;5109721;28;20281;-56
2023/06/15 00:49:04;;;;;;;6.75;6.35;;;;;;;-144.30;87.38;84927.31;5109988;28;20222;-57
2023/06/15 00:51:32;;;;;;;7.63;7.03;;;;;;;-144.30;87.34;84927.31;5109914;28;20217;-62
2023/06/15 00:54:00;;;;;;;7.63;7.10;;;;;;;-144.30;87.69;84931.28;5109998;28;20197;-61
2023/06/15 00:56:29;;;;;;;9.93;7.20;;;;;;;-144.30;87.99;84961.09;5109768;28;20198;-61
2023/06/15 00:58:56;;;;;;;7.78;7.20;;;;;;;-144.30;88.16;84935.25;5109850;28;20252;-61
2023/06/15 01:01:25;;;;;;;16.00;7.93;;;;;;;-144.30;88.40;84971.03;5110203;28;20303;-55
2023/06/15 01:03:54;;;;;;;11.93;7.43;;;;;;;-144.30;88.51;84971.03;5109920;28;20577;-56
2023/06/15 01:06:24;;;;;;;7.63;7.03;;;;;;;-144.30;88.78;84961.09;5109729;28;20378;-56
2023/06/15 01:08:53;;;;;;;9.07;7.97;;;;;;;-144.30;89.51;84953.16;5109454;28;20311;-55
2023/06/15 01:11:21;;;;;;;12.32;8.82;;;;;;;-144.30;89.95;84986.94;5109591;28;20198;-56
2023/06/15 01:13:48;;;;;;;8.57;7.95;;;;;;;-144.30;90.48;85000.84;5109679;28;20593;-56
2023/06/15 01:16:23;;;;;;;10.82;8.52;;;;;;;-144.30;91.09;85034.66;5109499;28;20194;-56
2023/06/15 01:18:57;;;;;;;10.77;8.48;;;;;;;-144.30;91.19;85000.84;5109735;28;20580;-56
2023/06/15 01:21:27;;;;;;;9.07;8.38;;;;;;;-144.30;91.11;85002.84;5109568;28;20190;-56
2023/06/15 01:24:06;;;;;;;9.50;8.60;;;;;;;-144.30;91.35;84933.28;5109356;28;20194;-56
2023/06/15 01:26:38;;;;;;;9.32;8.43;;;;;;;-144.30;91.87;85004.84;5109350;28;20201;-56
2023/06/15 01:29:06;;;;;;;9.15;8.27;;;;;;;-144.30;92.39;85026.69;5109501;28;20257;-56
2023/06/15 01:31:33;;;;;;;9.02;8.20;;;;;;;-144.30;92.78;85026.69;5109327;28;20190;-55
2023/06/15 01:34:01;;;;;;;9.68;8.80;;;;;;;-144.30;92.49;85010.78;5109263;28;20288;-56
2023/06/15 01:36:28;;;;;;;9.18;8.32;;;;;;;-144.30;92.74;84994.91;5108953;28;20195;-56
2023/06/15 01:38:58;;;;;;;9.23;8.48;;;;;;;-144.30;92.88;84998.88;5109433;28;20191;-55
2023/06/15 01:41:27;;;;;;;9.05;8.25;;;;;;;-144.30;92.73;85038.63;5109776;28;20673;-60
2023/06/15 01:43:57;;;;;;;9.00;8.13;;;;;;;-144.30;92.86;85048.56;5109378;28;20217;-61
2023/06/15 01:46:26;;;;;;;9.32;8.63;;;;;;;-144.30;93.10;85042.59;5109158;28;20205;-61
2023/06/15 01:48:54;;;;;;;11.27;8.07;;;;;;;-144.30;92.86;85054.53;5109058;28;20705;-56
2023/06/15 01:51:23;;;;;;;8.98;8.18;;;;;;;-144.30;92.90;85076.38;5109488;28;20643;-55
2023/06/15 01:53:50;;;;;;;9.23;8.38;;;;;;;-144.30;92.93;85084.34;5109569;28;20205;-55
2023/06/15 01:56:18;;;;;;;9.23;7.90;;;;;;;-144.30;92.85;85086.31;5113430;28;20218;-56
2023/06/15 01:58:45;;;;;;;10.02;7.80;;;;;;;-144.30;92.91;85078.38;5113216;28;20674;-56
2023/06/15 02:01:13;;;;;;;8.80;7.57;;;;;;;-144.30;93.04;85106.22;5113328;28;20718;-57
2023/06/15 02:03:40;;;;;;;8.57;7.85;;;;;;;-144.30;93.08;85094.28;5112949;28;20388;-57
2023/06/15 02:06:07;;;;;;;8.85;7.65;;;;;;;-144.30;93.27;85062.47;5113269;28;20194;-57
2023/06/15 02:08:34;;;;;;;8.13;7.47;;;;;;;-144.30;93.20;85120.13;5112826;28;20199;-56
2023/06/15 02:11:01;;;;;;;9.60;7.90;;;;;;;-144.30;93.18;85104.22;5113064;27;20195;-56
2023/06/15 02:13:28;;;;;;;8.13;7.32;;;;;;;-144.30;93.10;85092.28;5112950;28;20194;-57
2023/06/15 02:15:55;;;;;;;7.30;6.60;;;;;;;-144.30;92.98;85132.03;5112686;28;20195;-56
2023/06/15 02:18:23;;;;;;;9.00;7.38;;;;;;;-144.30;93.37;85100.25;5113105;28;20705;-57
2023/06/15 02:20:50;;;;;;;8.40;7.68;;;;;;;-144.30;93.48;85116.16;5112640;28;20199;-56
2023/06/15 02:23:17;;;;;;;8.20;7.47;;;;;;;-144.30;93.81;85124.09;5113026;28;20222;-56
2023/06/15 02:25:44;;;;;;;8.38;7.40;;;;;;;-144.30;93.98;85096.25;5112484;28;20286;-56
2023/06/15 02:28:11;;;;;;;14.35;8.15;;;;;;;-144.30;93.94;85096.25;5112840;28;20195;-55
2023/06/15 02:30:39;;;;;;;9.02;7.45;;;;;;;-144.30;93.76;85153.91;5112159;28;20223;-62
2023/06/15 02:33:07;;;;;;;8.60;8.00;;;;;;;-144.30;94.01;85126.09;5112327;28;20231;-61
2023/06/15 02:35:35;;;;;;;8.90;7.82;;;;;;;-144.30;94.43;85134.03;5112216;28;20198;-57
2023/06/15 02:38:02;;;;;;;13.52;8.02;;;;;;;-144.30;94.89;85147.94;5112713;28;20201;-57
2023/06/15 02:40:29;;;;;;;11.32;7.90;;;;;;;-144.30;94.47;85149.94;5112408;28;20217;-56
2023/06/15 02:42:56;;;;;;;9.00;8.18;;;;;;;-144.30;94.50;85147.94;5112910;28;20578;-55
2023/06/15 02:45:23;;;;;;;10.13;8.40;;;;;;;-144.30;94.24;85134.03;5112263;28;20206;-56
2023/06/15 02:47:50;;;;;;;8.32;7.50;;;;;;;-144.30;94.00;85138.00;5112253;28;20654;-56
2023/06/15 02:50:17;;;;;;;9.48;8.02;;;;;;;-144.30;93.38;85134.03;5112238;28;20218;-55
2023/06/15 02:52:46;;;;;;;7.80;7.05;;;;;;;-144.30;93.43;85147.94;5112578;28;20227;-57
2023/06/15 02:55:14;;;;;;;7.95;7.18;;;;;;;-144.30;93.75;85179.75;5112423;28;20765;-56
2023/06/15 02:57:41;;;;;;;8.23;7.53;;;;;;;-144.30;93.16;85140.00;5112008;28;20633;-56
2023/06/15 03:00:13;;;;;;;8.80;7.60;;;;;;;-144.30;93.03;85074.41;5112292;28;20652;-62
2023/06/15 03:02:43;;;;;;;10.23;8.05;;;;;;;-144.30;93.13;85062.47;5112256;28;20678;-61
2023/06/15 03:05:11;;;;;;;8.38;7.38;;;;;;;-144.30;93.25;85165.84;5111845;28;20194;-61
2023/06/15 03:07:40;;;;;;;8.77;7.63;;;;;;;-144.30;93.27;85183.72;5111839;28;20194;-61
2023/06/15 03:10:09;;;;;;;8.93;8.13;;;;;;;-144.30;93.11;85132.03;5111504;28;20610;-61
2023/06/15 03:12:36;;;;;;;8.65;7.88;;;;;;;-144.30;92.96;85161.88;5111894;28;20634;-60
2023/06/15 03:15:08;;;;;;;8.90;8.10;;;;;;;-144.30;93.33;85159.88;5111740;28;20191;-56
2023/06/15 03:17:35;;;;;;;11.95;8.13;;;;;;;-144.30;93.37;85187.69;5111492;28;20194;-58
2023/06/15 03:20:03;;;;;;;8.60;7.50;;;;;;;-144.30;93.54;85155.91;5111700;28;20698;-56
2023/06/15 03:22:30;;;;;;;9.63;7.22;;;;;;;-144.30;92.83;85165.84;5111460;28;20198;-56
2023/06/15 03:24:56;;;;;;;12.50;7.68;;;;;;;-144.30;92.73;85138.00;5111470;28;20201;-56
2023/06/15 03:27:26;;;;;;;7.80;7.10;;;;;;;-144.30;92.19;85122.09;5111922;28;20198;-57
2023/06/15 03:29:54;;;;;;;9.95;7.63;;;;;;;-144.30;92.04;85094.28;5111276;28;20222;-56
2023/06/15 03:32:20;;;;;;;8.15;7.50;;;;;;;-144.30;91.26;85098.25;5111858;28;20647;-54
2023/06/15 03:34:47;;;;;;;11.18;8.00;;;;;;;-144.30;91.22;85080.38;5111280;28;20684;-56
2023/06/15 03:37:14;;;;;;;8.63;7.70;;;;;;;-144.30;90.58;85064.47;5111430;28;20202;-55
2023/06/15 03:39:41;;;;;;;7.53;6.82;;;;;;;-144.30;90.02;85066.44;5111023;28;20198;-55
2023/06/15 03:42:09;;;;;;;10.80;7.45;;;;;;;-144.30;89.60;85034.66;5111667;28;20195;-55
2023/06/15 03:44:37;;;;;;;7.63;7.07;;;;;;;-144.30;89.07;85066.44;5111129;28;20221;-55
2023/06/15 03:47:04;;;;;;;7.07;6.38;;;;;;;-144.30;89.44;85066.44;5111172;28;20615;-55
2023/06/15 03:49:31;;;;;;;8.55;7.10;;;;;;;-144.30;89.52;85082.34;5110661;28;20223;-55
2023/06/15 03:51:58;;;;;;;8.02;7.32;;;;;;;-144.30;89.46;85068.44;5105316;28;20317;-59
2023/06/15 03:54:25;;;;;;;8.23;7.40;;;;;;;-144.30;89.04;85046.56;5089964;28;20210;-59
2023/06/15 03:56:52;;;;;;;7.72;7.03;;;;;;;-144.30;88.10;85074.41;5090507;28;20586;-60
2023/06/15 03:59:19;;;;;;;7.72;7.05;;;;;;;-144.30;87.49;85014.78;5090328;28;20282;-59
2023/06/15 04:01:47;;;;;;;7.60;6.57;;;;;;;-144.30;87.24;85006.81;5109041;28;20236;-56
2023/06/15 04:04:15;;;;;;;7.65;6.47;;;;;;;-144.30;86.34;84929.28;5108947;28;20208;-55
2023/06/15 04:06:46;;;;;;;7.03;6.43;;;;;;;-144.30;83.34;84863.72;5108454;28;20843;-55
2023/06/15 04:09:14;;;;;;;7.30;6.65;;;;;;;-144.30;81.69;84831.91;5109514;28;20211;-55
2023/06/15 04:11:41;;;;;;;7.13;6.47;;;;;;;-144.30;80.74;84784.19;5109167;28;20244;-55
2023/06/15 04:14:08;;;;;;;7.10;6.60;;;;;;;-144.30;76.98;84573.53;5108954;28;20195;-55
2023/06/15 04:16:35;;;;;;;7.78;6.10;;;;;;;-144.30;72.29;84339.00;5107319;28;20675;-60
2023/06/15 04:19:03;;;;;;;10.65;6.00;;;;;;;-144.30;65.50;84056.81;5109588;28;20190;-60
2023/06/15 04:21:30;;;;;;;9.43;5.97;;;;;;;-144.30;64.74;84102.53;5107618;28;20200;-60
2023/06/15 04:23:57;;;;;;;6.88;6.22;;;;;;;-144.30;66.47;84158.16;5109608;28;20206;-60
2023/06/15 04:26:24;;;;;;;7.28;6.45;;;;;;;-144.30;65.93;84142.28;5109735;28;20205;-55
2023/06/15 04:28:52;;;;;;;6.80;6.15;;;;;;;-144.30;62.73;83915.75;5109481;28;20311;-56
2023/06/15 04:31:21;;;;;;;6.78;6.18;;;;;;;-144.30;61.16;83790.56;5110187;28;20318;-55
2023/06/15 04:33:48;;;;;;;8.98;5.95;;;;;;;-144.30;58.78;83738.88;5110051;28;20222;-55
2023/06/15 04:36:17;;;;;;;6.63;6.10;;;;;;;-144.30;56.51;83504.44;5110370;28;20281;-56
2023/06/15 04:38:46;;;;;;;6.13;5.50;;;;;;;-144.30;54.80;83389.19;5110059;28;20606;-55
2023/06/15 04:41:14;;;;;;;7.03;6.40;;;;;;;-144.30;53.61;83258.06;5107155;28;20621;-60
2023/06/15 04:43:41;;;;;;;7.68;6.38;;;;;;;-144.30;53.96;83341.50;5110281;28;20200;-60
2023/06/15 04:46:08;;;;;;;8.45;6.30;;;;;;;-144.30;53.53;83317.66;5109783;28;20194;-60
2023/06/15 04:48:35;;;;;;;6.63;6.07;;;;;;;-144.30;54.02;83347.47;5109669;28;20194;-59
2023/06/15 04:51:02;;;;;;;9.85;6.10;;;;;;;-144.30;52.12;83172.66;5109873;28;20218;-60
2023/06/15 04:53:30;;;;;;;7.00;6.00;;;;;;;-144.30;50.65;83027.63;5109804;28;20194;-60
2023/06/15 04:55:57;;;;;;;6.03;5.72;;;;;;;-144.30;50.04;82979.94;5109044;28;20191;-60
2023/06/15 04:58:24;;;;;;;8.27;6.07;;;;;;;-144.30;48.76;82828.97;5109362;28;20205;-60
2023/06/15 05:00:51;;;;;;;10.32;6.63;;;;;;;-144.30;47.84;82769.38;5109298;28;20346;-56
2023/06/15 05:03:19;;;;;;;8.60;6.38;;;;;;;-144.30;46.99;82699.84;5109556;28;20594;-57
2023/06/15 05:05:46;;;;;;;6.50;6.00;;;;;;;-144.30;49.39;82983.91;5109221;28;20190;-56
2023/06/15 05:08:13;;;;;;;7.07;6.38;;;;;;;-144.30;48.57;82870.69;5108046;28;20285;-56
2023/06/15 05:10:41;;;;;;;12.60;6.85;;;;;;;-144.30;48.15;82838.91;5108867;28;20229;-55
2023/06/15 05:13:08;;;;;;;6.63;6.00;;;;;;;-144.30;47.50;82747.53;5109350;28;20194;-57
2023/06/15 05:15:35;;;;;;;6.75;6.13;;;;;;;-144.30;46.19;82612.44;5109219;28;20212;-59
2023/06/15 05:18:02;;;;;;;9.02;5.72;;;;;;;-144.30;44.03;82419.78;5109440;28;20194;-57
2023/06/15 05:20:29;;;;;;;7.05;6.45;;;;;;;-144.30;42.90;82245.00;5109528;28;20607;-56
2023/06/15 05:22:56;;;;;;;7.00;6.30;;;;;;;-144.30;41.88;82125.84;5109238;28;20194;-57
2023/06/15 05:25:23;;;;;;;6.82;6.07;;;;;;;-144.30;41.18;82098.03;5109497;28;20255;-57
2023/06/15 05:27:52;;;;;;;6.72;5.65;;;;;;;-144.30;40.86;82137.75;5109118;28;20639;-57
2023/06/15 05:30:19;;;;;;;6.53;5.93;;;;;;;-144.30;41.65;82320.47;5112617;28;20599;-62
2023/06/15 05:32:46;;;;;;;8.85;5.65;;;;;;;-144.30;43.29;82531.00;5113529;28;20699;-61
2023/06/15 05:35:13;;;;;;;6.18;5.68;;;;;;;-144.30;44.28;82674.03;5113929;28;20194;-63
2023/06/15 05:37:40;;;;;;;6.75;6.03;;;;;;;-144.30;45.48;82785.28;5113738;28;20255;-62
2023/06/15 05:40:08;;;;;;;7.45;6.88;;;;;;;-144.30;45.78;82828.97;5113520;28;20198;-63
2023/06/15 05:42:35;;;;;;;6.82;6.22;;;;;;;-144.30;44.88;82626.34;5113218;28;20685;-57
2023/06/15 05:45:04;;;;;;;11.50;6.97;;;;;;;-144.30;44.12;82459.50;5112099;28;20734;-57
2023/06/15 05:47:32;;;;;;;8.00;6.25;;;;;;;-144.30;43.50;82376.09;5113608;28;20202;-57
2023/06/15 05:50:00;;;;;;;6.47;6.10;;;;;;;-144.30;42.63;82332.38;5113116;28;20214;-56
2023/06/15 05:52:26;;;;;;;6.47;5.97;;;;;;;-144.30;42.04;82342.31;5113638;28;20198;-58
2023/06/15 05:54:54;;;;;;;6.38;5.78;;;;;;;-144.30;41.50;82193.38;5113180;28;20191;-57
2023/06/15 05:57:21;;;;;;;7.20;6.57;;;;;;;-144.30;41.32;82223.16;5113630;28;20260;-62
2023/06/15 05:59:47;;;;;;;6.95;6.40;;;;;;;-144.30;41.03;82193.38;5112956;28;20259;-63
2023/06/15 06:02:16;;;;;;;6.68;5.90;;;;;;;-144.30;41.59;82221.16;5113446;28;20317;-63
2023/06/15 06:04:43;;;;;;;7.07;6.35;;;;;;;-144.30;43.04;82455.53;5112918;28;20194;-62
2023/06/15 06:07:10;;;;;;;6.75;6.15;;;;;;;-144.30;43.58;82588.63;5112440;28;20569;-63
2023/06/15 06:09:38;;;;;;;7.90;6.40;;;;;;;-144.30;46.04;82828.97;5107179;28;20658;-62
2023/06/15 06:12:06;;;;;;;7.88;6.15;;;;;;;-144.30;47.40;82983.91;5112751;28;20259;-62
2023/06/15 06:14:33;;;;;;;8.52;7.10;;;;;;;-144.30;49.13;83180.59;5112981;28;20685;-62
2023/06/15 06:17:00;;;;;;;9.25;6.97;;;;;;;-144.30;49.87;83270.00;5112797;28;20202;-62
2023/06/15 06:19:28;;;;;;;9.07;6.70;;;;;;;-144.30;50.12;83186.56;5112974;28;20195;-63
2023/06/15 06:21:55;;;;;;;7.65;7.03;;;;;;;-144.30;49.56;83136.88;5112418;28;20205;-62
2023/06/15 06:24:22;;;;;;;10.25;6.47;;;;;;;-144.30;50.01;83140.84;5112504;28;20730;-56
2023/06/15 06:26:49;;;;;;;6.50;6.00;;;;;;;-144.30;48.81;82958.09;5112244;28;20198;-58
2023/06/15 06:29:16;;;;;;;7.60;6.78;;;;;;;-144.30;47.69;82902.47;5112154;28;20247;-57
2023/06/15 06:31:43;;;;;;;7.82;7.32;;;;;;;-144.30;48.03;82993.84;5109849;28;20221;-57
2023/06/15 06:34:10;;;;;;;13.20;6.93;;;;;;;-144.30;48.83;83079.28;5112237;28;20238;-57
2023/06/15 06:36:39;;;;;;;7.80;7.30;;;;;;;-144.30;50.52;83138.88;5112063;28;20203;-57
2023/06/15 06:39:06;;;;;;;12.65;7.68;;;;;;;-144.30;51.27;83277.94;5112342;28;20191;-56
2023/06/15 06:41:33;;;;;;;7.72;7.00;;;;;;;-144.30;52.22;83389.19;5112027;28;20191;-57
2023/06/15 06:43:59;;;;;;;8.13;7.47;;;;;;;-144.30;53.60;83432.91;5112189;28;20206;-62
2023/06/15 06:46:26;;;;;;;8.70;7.97;;;;;;;-144.30;53.48;83395.16;5112431;28;20205;-57
2023/06/15 06:48:54;;;;;;;11.45;8.52;;;;;;;-144.30;53.88;83389.19;5111970;28;20195;-57
2023/06/15 06:51:21;;;;;;;8.07;7.68;;;;;;;-144.30;52.71;83202.44;5112234;28;20225;-56
2023/06/15 06:53:49;;;;;;;9.88;7.97;;;;;;;-144.30;52.65;83283.91;5111961;28;20286;-58
2023/06/15 06:56:16;;;;;;;12.10;9.00;;;;;;;-144.30;53.15;83293.84;5112019;28;20191;-57
2023/06/15 06:58:43;;;;;;;10.65;9.50;;;;;;;-144.30;52.43;83335.56;5111915;28;20588;-57
2023/06/15 07:01:10;;;;;;;9.98;9.13;;;;;;;-144.30;52.90;83317.66;5111901;28;20199;-60
2023/06/15 07:03:38;;;;;;;9.07;8.45;;;;;;;-144.30;54.14;83417.00;5111655;28;20194;-62
2023/06/15 07:06:05;;;;;;;9.40;8.52;;;;;;;-144.30;54.55;83440.84;5111728;28;20201;-61
2023/06/15 07:08:32;;;;;;;9.98;9.27;;;;;;;-144.30;54.85;83540.19;5112034;28;20195;-61
2023/06/15 07:11:00;;;;;;;9.48;8.45;;;;;;;-144.30;55.59;83548.16;5111688;28;20276;-62
2023/06/15 07:13:27;;;;;;;10.55;9.70;;;;;;;-144.30;55.65;83522.31;5111810;28;20700;-61
2023/06/15 07:15:57;;;;;;;10.77;8.88;;;;;;;-144.30;56.56;83530.25;5111547;28;20593;-62
2023/06/15 07:18:25;;;;;;;9.77;8.88;;;;;;;-144.30;55.96;83504.44;5107758;28;20222;-57
2023/06/15 07:20:54;;;;;;;9.90;8.43;;;;;;;-144.30;55.58;83488.53;5111089;28;20203;-57
2023/06/15 07:23:22;;;;;;;11.95;8.75;;;;;;;-144.30;55.43;83422.97;5111390;28;20259;-55
2023/06/15 07:25:49;;;;;;;9.73;8.80;;;;;;;-144.30;55.11;83480.59;5111231;28;20190;-61
2023/06/15 07:28:18;;;;;;;9.90;8.90;;;;;;;-144.30;55.15;83436.88;5111428;28;20201;-61
2023/06/15 07:30:46;;;;;;;10.00;9.23;;;;;;;-144.30;55.15;83500.47;5110752;28;20222;-61
2023/06/15 07:33:13;;;;;;;9.85;8.98;;;;;;;-144.30;55.37;83415.03;5110826;28;20238;-62
2023/06/15 07:35:39;;;;;;;9.40;8.77;;;;;;;-144.30;54.46;83307.75;5111030;28;20603;-61
2023/06/15 07:38:06;;;;;;;8.65;8.02;;;;;;;-144.30;52.78;83144.84;5111385;28;20201;-62
2023/06/15 07:40:33;;;;;;;9.77;8.95;;;;;;;-144.30;51.34;82975.97;5111404;28;20201;-57
2023/06/15 07:43:00;;;;;;;9.85;8.27;;;;;;;-144.30;49.44;82755.47;5111236;28;20218;-56
2023/06/15 07:45:29;;;;;;;8.60;7.88;;;;;;;-144.30;48.46;82755.47;5109703;28;20199;-57
2023/06/15 07:47:56;;;;;;;8.63;7.90;;;;;;;-144.30;47.63;82544.91;5100073;28;20207;-56
2023/06/15 07:50:23;;;;;;;10.32;7.93;;;;;;;-144.30;47.19;82695.88;5090461;28;20206;-56
2023/06/15 07:52:51;;;;;;;9.90;7.40;;;;;;;-144.30;47.21;82735.59;5089419;28;20199;-56
2023/06/15 07:55:18;;;;;;;9.07;8.18;;;;;;;-144.30;47.57;82753.50;5090490;28;20588;-56
2023/06/15 07:57:45;;;;;;;8.80;7.95;;;;;;;-144.30;48.06;82761.44;5090242;28;20226;-56
2023/06/15 08:00:13;;;;;;;8.60;7.78;;;;;;;-144.30;48.13;82753.50;5090632;28;20618;-57
2023/06/15 08:02:41;;;;;;;9.60;8.65;;;;;;;-144.30;47.87;82642.25;5090319;28;20590;-56
2023/06/15 08:05:08;;;;;;;9.07;7.65;;;;;;;-144.30;46.58;82606.50;5090405;28;20575;-57
2023/06/15 08:07:36;;;;;;;8.45;7.75;;;;;;;-144.30;45.45;82523.06;5090467;28;20617;-57
2023/06/15 08:10:03;;;;;;;7.57;7.00;;;;;;;-144.30;46.21;82556.84;5097900;28;20323;-55
2023/06/15 08:12:30;;;;;;;8.60;8.00;;;;;;;-144.30;45.95;82598.56;5110509;28;20229;-56
2023/06/15 08:14:57;;;;;;;8.23;7.57;;;;;;;-144.30;45.42;82431.69;5110210;28;20571;-56
2023/06/15 08:17:25;;;;;;;7.20;6.80;;;;;;;-144.30;44.30;82374.09;5110732;28;20678;-56
2023/06/15 08:19:54;;;;;;;8.55;7.10;;;;;;;-144.30;43.12;82203.28;5109985;28;20478;-56
2023/06/15 08:22:21;;;;;;;7.45;6.93;;;;;;;-144.30;42.90;82193.38;5110306;28;20704;-56
2023/06/15 08:24:48;;;;;;;7.90;7.40;;;;;;;-144.30;44.01;82384.03;5110213;28;20198;-57
2023/06/15 08:27:15;;;;;;;7.20;6.80;;;;;;;-144.30;45.00;82580.66;5110422;28;20195;-57
2023/06/15 08:29:44;;;;;;;8.23;7.63;;;;;;;-144.30;47.11;82709.78;5110141;28;20194;-57
2023/06/15 08:32:13;;;;;;;10.45;8.10;;;;;;;-144.30;48.50;82916.38;5109666;27;20264;-58
2023/06/15 08:34:41;;;;;;;8.20;7.43;;;;;;;-144.30;49.21;82989.88;5106579;28;20230;-57
2023/06/15 08:37:11;;;;;;;8.95;8.25;;;;;;;-144.30;49.51;82991.88;5089811;28;20206;-57
2023/06/15 08:39:39;;;;;;;7.30;6.90;;;;;;;-144.30;50.50;83081.25;5089289;28;20199;-57
2023/06/15 08:42:08;;;;;;;6.88;6.57;;;;;;;-144.30;50.36;83420.97;5097182;28;20255;-57
2023/06/15 08:44:36;;;;;;;7.57;6.72;;;;;;;-144.30;51.28;83186.56;5109976;28;20221;-56
2023/06/15 08:47:04;;;;;;;7.78;7.38;;;;;;;-144.30;51.38;83252.09;5108510;28;20733;-56
2023/06/15 08:49:32;;;;;;;8.52;7.13;;;;;;;-144.30;51.99;83311.72;5110163;28;20265;-58
2023/06/15 08:51:59;;;;;;;7.90;7.30;;;;;;;-144.30;52.68;83297.81;5109308;28;20229;-57
2023/06/15 08:54:31;;;;;;;7.32;6.78;;;;;;;-144.30;52.41;83273.97;5110019;28;20194;-56
2023/06/15 08:56:58;;;;;;;8.15;7.65;;;;;;;-144.30;52.86;83337.53;5109805;28;20190;-56
2023/06/15 08:59:26;;;;;;;8.65;7.88;;;;;;;-144.30;52.78;83295.81;5109847;28;20221;-57
2023/06/15 09:01:55;;;;;;;9.23;8.50;;;;;;;-144.30;53.55;83345.50;5109484;28;20194;-58
2023/06/15 09:04:22;;;;;;;10.68;8.48;;;;;;;-144.30;53.70;83337.53;5109481;28;20191;-57
2023/06/15 09:06:50;;;;;;;9.18;8.27;;;;;;;-144.30;53.15;83266.03;5109333;28;20202;-57
2023/06/15 09:09:17;;;;;;;8.05;7.45;;;;;;;-144.30;52.82;83273.97;5109511;28;20197;-57
2023/06/15 09:11:45;;;;;;;8.25;7.60;;;;;;;-144.30;53.09;83184.56;5109144;28;20224;-57
2023/06/15 09:14:13;;;;;;;7.55;6.93;;;;;;;-144.30;53.46;83266.03;5109460;28;20187;-57
2023/06/15 09:16:40;;;;;;;7.80;7.32;;;;;;;-144.30;53.19;83256.09;5109475;28;20685;-58
2023/06/15 09:19:11;;;;;;;13.35;8.18;;;;;;;-144.30;52.96;83194.50;5109477;28;20281;-56
2023/06/15 09:21:43;;;;;;;7.95;7.45;;;;;;;-144.30;53.16;83254.09;5109546;28;20290;-56
2023/06/15 09:24:10;;;;;;;8.32;7.38;;;;;;;-144.30;53.90;83309.72;5109682;28;20215;-63
2023/06/15 09:26:40;;;;;;;8.85;8.13;;;;;;;-144.30;54.17;83293.84;5109690;28;20198;-62
2023/06/15 09:29:12;;;;;;;8.95;8.25;;;;;;;-144.30;54.17;83285.88;5109725;28;20210;-63
2023/06/15 09:31:40;;;;;;;10.13;8.70;;;;;;;-144.30;53.86;83246.16;5109731;28;20214;-62
2023/06/15 09:34:09;;;;;;;8.85;8.25;;;;;;;-144.30;53.07;83238.19;5109474;28;20253;-63
2023/06/15 09:36:40;;;;;;;8.88;8.20;;;;;;;-144.30;52.91;83154.75;5109544;28;20226;-62
2023/06/15 09:39:09;;;;;;;8.73;8.18;;;;;;;-144.30;52.90;83188.53;5109454;28;20194;-62
2023/06/15 09:41:36;;;;;;;8.95;8.25;;;;;;;-144.30;53.09;83198.47;5109708;28;20190;-62
2023/06/15 09:44:06;;;;;;;8.95;8.07;;;;;;;-144.30;53.09;83206.41;5109132;28;20198;-62
2023/06/15 09:46:36;;;;;;;9.10;8.27;;;;;;;-144.30;53.51;83208.41;5109640;28;20194;-62
2023/06/15 09:49:03;;;;;;;8.02;7.60;;;;;;;-144.30;53.54;83214.38;5109392;28;20684;-63
2023/06/15 09:51:35;;;;;;;8.75;8.07;;;;;;;-144.30;53.23;83210.38;5109231;28;20234;-63
2023/06/15 09:54:05;;;;;;;9.68;8.40;;;;;;;-144.30;54.52;83554.09;5109251;28;20199;-62
2023/06/15 09:56:33;;;;;;;8.52;7.88;;;;;;;-144.30;54.49;83210.38;5109205;28;20285;-62
2023/06/15 09:59:02;;;;;;;9.02;8.52;;;;;;;-144.30;54.49;83287.88;5109339;28;20573;-62
2023/06/15 10:01:33;;;;;;;9.23;8.45;;;;;;;-144.30;54.55;83335.56;5109083;28;20244;-62
2023/06/15 10:04:03;;;;;;;7.65;7.25;;;;;;;-144.30;54.51;83373.31;5109086;28;20596;-63
2023/06/15 10:06:33;;;;;;;8.63;8.00;;;;;;;-144.30;55.49;83424.97;5109532;28;20585;-63
2023/06/15 10:09:02;;;;;;;10.52;9.60;;;;;;;-144.30;56.22;83490.53;5108812;28;20214;-62
2023/06/15 10:11:29;;;;;;;9.00;8.45;;;;;;;-144.30;57.00;83564.03;5109079;28;20283;-62
2023/06/15 10:14:04;;;;;;;9.88;9.00;;;;;;;-144.30;57.72;83605.75;5106258;28;20616;-63
2023/06/15 10:16:32;;;;;;;9.10;8.50;;;;;;;-144.30;59.06;84299.25;5112161;28;20194;-62
2023/06/15 10:19:04;;;;;;;11.20;8.95;;;;;;;-144.30;59.66;83713.06;5113798;28;20449;-62
2023/06/15 10:21:36;;;;;;;9.43;8.60;;;;;;;-144.30;60.13;83703.13;5112560;28;20190;-62
2023/06/15 10:24:10;;;;;;;10.07;9.38;;;;;;;-144.30;61.41;83744.84;5112169;28;20201;-62
2023/06/15 10:26:37;;;;;;;13.82;9.18;;;;;;;-144.30;62.25;83697.16;5112353;28;20195;-62
2023/06/15 10:29:12;;;;;;;12.65;9.73;;;;;;;-144.30;63.87;83643.50;5111518;28;20202;-62
2023/06/15 10:31:47;;;;;;;12.05;10.75;;;;;;;-144.30;68.33;83752.78;5110286;28;20220;-63
2023/06/15 10:34:24;;;;;;;13.20;11.98;;;;;;;-144.30;72.20;83764.72;5112744;28;20613;-62
2023/06/15 10:37:02;;;;;;;15.48;12.90;;;;;;;-144.30;76.23;83850.16;5112747;28;20203;-62
2023/06/15 10:39:36;;;;;;;23.25;20.90;;;;;;;-144.30;76.90;83895.88;5112686;28;20206;-62
2023/06/15 10:42:07;;;;;;;16.55;14.98;;;;;;;-144.30;77.80;83999.19;5095346;28;20206;-62
2023/06/15 10:44:34;;;;;;;14.98;13.35;;;;;;;-144.30;78.23;83985.28;5091880;28;20196;-62
2023/06/15 10:47:08;;;;;;;14.98;13.52;;;;;;;-144.30;79.29;84001.19;5091766;28;20201;-62
2023/06/15 10:49:37;;;;;;;15.15;13.63;;;;;;;-144.30;78.42;84054.84;5091801;28;20203;-62
2023/06/15 10:52:05;;;;;;;14.77;12.70;;;;;;;-144.30;80.18;84076.69;5091733;28;20576;-62
2023/06/15 10:54:32;;;;;;;17.05;12.40;;;;;;;-144.30;80.74;84068.75;5091853;28;20671;-62
2023/06/15 10:56:59;;;;;;;13.48;11.95;;;;;;;-144.30;80.30;84088.63;5090727;28;20199;-62
2023/06/15 10:59:42;;;;;;;14.38;13.00;;;;;;;-144.30;79.92;84120.41;5091295;28;20218;-62
2023/06/15 11:02:48;;;;;;;13.40;12.38;;;;;;;-144.30;79.34;84084.66;5088468;28;20257;-61
2023/06/15 11:05:21;;;;;;;13.90;12.43;;;;;;;-144.30;79.37;84084.66;5109062;28;20190;-61
2023/06/15 11:07:52;;;;;;;12.60;11.60;;;;;;;-144.30;78.31;84088.63;5111202;28;20269;-61
2023/06/15 11:10:22;;;;;;;13.93;12.57;;;;;;;-144.30;79.61;84184.00;5109302;28;20187;-61
2023/06/15 11:13:00;;;;;;;14.93;13.38;;;;;;;-144.30;81.02;84172.06;5111320;28;20686;-61
2023/06/15 11:15:33;;;;;;;14.20;12.85;;;;;;;-144.30;81.32;84116.44;5111901;28;20490;-62
2023/06/15 11:18:02;;;;;;;15.10;12.63;;;;;;;-144.30;83.36;84221.75;5111556;28;20198;-62
2023/06/15 11:20:46;;;;;;;13.90;12.60;;;;;;;-144.30;84.32;84211.81;5104820;28;20210;-61